sensor_id;sensor_type;location;lat;lon;timestamp;temperature;humidity
55331;DHT22;58851;42.984;20.336;2022-09-30T00:01:39;282.00;6528.00
55331;DHT22;58851;42.984;20.336;2022-09-30T00:04:06;282.10;6528.00
55331;DHT22;58851;42.984;20.336;2022-09-30T00:06:32;281.90;6528.00
55331;DHT22;58851;42.984;20.336;2022-09-30T00:09:02;282.00;6528.00
55331;DHT22;58851;42.984;20.336;2022-09-30T00:11:30;281.90;6528.00
55331;DHT22;58851;42.984;20.336;2022-09-30T00:13:57;282.00;6528.00
55331;DHT22;58851;42.984;20.336;2022-09-30T00:16:25;281.80;6528.00
55331;DHT22;58851;42.984;20.336;2022-09-30T00:18:54;281.80;6528.00
55331;DHT22;58851;42.984;20.336;2022-09-30T00:21:20;281.90;6528.00
55331;DHT22;58851;42.984;20.336;2022-09-30T00:23:46;282.00;6528.00
55331;DHT22;58851;42.984;20.336;2022-09-30T00:26:22;281.90;6528.00
55331;DHT22;58851;42.984;20.336;2022-09-30T00:28:53;281.90;6528.00
55331;DHT22;58851;42.984;20.336;2022-09-30T00:31:20;281.90;6528.00
55331;DHT22;58851;42.984;20.336;2022-09-30T00:33:46;281.90;6528.00
55331;DHT22;58851;42.984;20.336;2022-09-30T00:39:04;282.00;6528.00
55331;DHT22;58851;42.984;20.336;2022-09-30T00:41:31;282.00;6528.00
55331;DHT22;58851;42.984;20.336;2022-09-30T00:43:56;282.10;6528.00
55331;DHT22;58851;42.984;20.336;2022-09-30T00:46:49;282.10;6528.00
55331;DHT22;58851;42.984;20.336;2022-09-30T00:49:18;282.10;6528.00
55331;DHT22;58851;42.984;20.336;2022-09-30T00:51:50;282.20;6528.00
55331;DHT22;58851;42.984;20.336;2022-09-30T00:54:22;282.20;6528.00
55331;DHT22;58851;42.984;20.336;2022-09-30T00:56:53;282.20;6528.00
55331;DHT22;58851;42.984;20.336;2022-09-30T00:59:26;282.20;6528.00
55331;DHT22;58851;42.984;20.336;2022-09-30T01:01:54;282.20;6528.00
55331;DHT22;58851;42.984;20.336;2022-09-30T01:04:24;282.20;6528.00
55331;DHT22;58851;42.984;20.336;2022-09-30T01:06:50;282.20;6528.00
55331;DHT22;58851;42.984;20.336;2022-09-30T01:09:17;282.20;6528.00
55331;DHT22;58851;42.984;20.336;2022-09-30T01:11:43;282.20;6528.00
55331;DHT22;58851;42.984;20.336;2022-09-30T01:14:16;281.80;6528.00
55331;DHT22;58851;42.984;20.336;2022-09-30T01:17:09;281.60;6528.00
55331;DHT22;58851;42.984;20.336;2022-09-30T01:22:39;281.60;6528.00
55331;DHT22;58851;42.984;20.336;2022-09-30T01:27:58;281.60;6528.00
55331;DHT22;58851;42.984;20.336;2022-09-30T01:39:24;281.60;6528.00
55331;DHT22;58851;42.984;20.336;2022-09-30T01:45:02;281.70;6528.00
55331;DHT22;58851;42.984;20.336;2022-09-30T02:00:59;281.60;6528.00
55331;DHT22;58851;42.984;20.336;2022-09-30T02:03:33;281.70;6528.00
55331;DHT22;58851;42.984;20.336;2022-09-30T02:06:08;281.60;6528.00
55331;DHT22;58851;42.984;20.336;2022-09-30T02:08:50;281.60;6528.00
55331;DHT22;58851;42.984;20.336;2022-09-30T02:11:22;281.70;6528.00
55331;DHT22;58851;42.984;20.336;2022-09-30T02:16:48;281.70;6528.00
55331;DHT22;58851;42.984;20.336;2022-09-30T02:19:48;281.80;6528.00
55331;DHT22;58851;42.984;20.336;2022-09-30T02:22:23;281.90;6528.00
55331;DHT22;58851;42.984;20.336;2022-09-30T02:24:55;282.00;6528.00
55331;DHT22;58851;42.984;20.336;2022-09-30T02:27:24;282.00;6528.00
55331;DHT22;58851;42.984;20.336;2022-09-30T02:29:55;282.00;6528.00
55331;DHT22;58851;42.984;20.336;2022-09-30T02:32:34;282.00;6528.00
55331;DHT22;58851;42.984;20.336;2022-09-30T02:35:09;282.00;6528.00
55331;DHT22;58851;42.984;20.336;2022-09-30T02:37:46;282.00;6528.00
55331;DHT22;58851;42.984;20.336;2022-09-30T02:40:25;282.00;6528.00
55331;DHT22;58851;42.984;20.336;2022-09-30T02:42:52;281.90;6528.00
55331;DHT22;58851;42.984;20.336;2022-09-30T02:45:21;282.00;6528.00
55331;DHT22;58851;42.984;20.336;2022-09-30T02:48:12;282.00;6528.00
55331;DHT22;58851;42.984;20.336;2022-09-30T02:50:53;282.00;6528.00
55331;DHT22;58851;42.984;20.336;2022-09-30T02:53:38;282.10;6528.00
55331;DHT22;58851;42.984;20.336;2022-09-30T02:58:39;282.10;6528.00
55331;DHT22;58851;42.984;20.336;2022-09-30T03:01:09;282.10;6528.00
55331;DHT22;58851;42.984;20.336;2022-09-30T03:03:52;282.20;6528.00
55331;DHT22;58851;42.984;20.336;2022-09-30T03:06:19;282.30;6528.00
55331;DHT22;58851;42.984;20.336;2022-09-30T03:08:46;282.20;6528.00
55331;DHT22;58851;42.984;20.336;2022-09-30T03:11:21;282.20;6528.00
55331;DHT22;58851;42.984;20.336;2022-09-30T03:16:48;282.20;6528.00
55331;DHT22;58851;42.984;20.336;2022-09-30T03:19:31;282.20;6528.00
55331;DHT22;58851;42.984;20.336;2022-09-30T03:24:59;282.10;6528.00
55331;DHT22;58851;42.984;20.336;2022-09-30T03:30:08;282.20;6528.00
55331;DHT22;58851;42.984;20.336;2022-09-30T03:38:19;282.10;6528.00
55331;DHT22;58851;42.984;20.336;2022-09-30T03:46:35;282.30;6528.00
55331;DHT22;58851;42.984;20.336;2022-09-30T03:49:09;282.20;6528.00
55331;DHT22;58851;42.984;20.336;2022-09-30T03:51:38;282.20;6528.00
55331;DHT22;58851;42.984;20.336;2022-09-30T03:54:10;282.10;6528.00
55331;DHT22;58851;42.984;20.336;2022-09-30T03:56:37;282.10;6528.00
55331;DHT22;58851;42.984;20.336;2022-09-30T03:59:16;282.20;6528.00
55331;DHT22;58851;42.984;20.336;2022-09-30T04:01:44;282.20;6528.00
55331;DHT22;58851;42.984;20.336;2022-09-30T04:04:09;282.10;6528.00
55331;DHT22;58851;42.984;20.336;2022-09-30T04:06:37;282.20;6528.00
55331;DHT22;58851;42.984;20.336;2022-09-30T04:09:03;282.20;6528.00
55331;DHT22;58851;42.984;20.336;2022-09-30T04:11:29;282.30;6528.00
55331;DHT22;58851;42.984;20.336;2022-09-30T04:13:55;282.30;6528.00
55331;DHT22;58851;42.984;20.336;2022-09-30T04:16:21;282.30;6528.00
55331;DHT22;58851;42.984;20.336;2022-09-30T04:18:46;282.30;6528.00
55331;DHT22;58851;42.984;20.336;2022-09-30T04:21:13;282.30;6528.00
55331;DHT22;58851;42.984;20.336;2022-09-30T04:23:41;282.40;6528.00
55331;DHT22;58851;42.984;20.336;2022-09-30T04:26:09;282.40;6528.00
55331;DHT22;58851;42.984;20.336;2022-09-30T04:28:35;282.40;6528.00
55331;DHT22;58851;42.984;20.336;2022-09-30T04:31:03;282.40;6528.00
55331;DHT22;58851;42.984;20.336;2022-09-30T04:33:29;282.40;6528.00
55331;DHT22;58851;42.984;20.336;2022-09-30T04:35:56;282.50;6528.00
55331;DHT22;58851;42.984;20.336;2022-09-30T04:38:23;282.50;6528.00
55331;DHT22;58851;42.984;20.336;2022-09-30T04:40:51;307.20;128.00
55331;DHT22;58851;42.984;20.336;2022-09-30T04:43:17;307.20;128.00
55331;DHT22;58851;42.984;20.336;2022-09-30T04:45:45;307.20;128.00
55331;DHT22;58851;42.984;20.336;2022-09-30T04:48:11;307.20;128.00
55331;DHT22;58851;42.984;20.336;2022-09-30T04:50:37;307.30;128.00
55331;DHT22;58851;42.984;20.336;2022-09-30T04:53:03;307.40;128.00
55331;DHT22;58851;42.984;20.336;2022-09-30T04:55:30;307.40;128.00
55331;DHT22;58851;42.984;20.336;2022-09-30T04:57:55;307.40;128.00
55331;DHT22;58851;42.984;20.336;2022-09-30T05:00:21;307.40;128.00
55331;DHT22;58851;42.984;20.336;2022-09-30T05:19:31;307.20;128.00
55331;DHT22;58851;42.984;20.336;2022-09-30T05:21:56;307.60;128.00
55331;DHT22;58851;42.984;20.336;2022-09-30T05:24:22;307.30;128.00
55331;DHT22;58851;42.984;20.336;2022-09-30T05:26:48;307.30;128.00
55331;DHT22;58851;42.984;20.336;2022-09-30T05:29:14;307.30;128.00
55331;DHT22;58851;42.984;20.336;2022-09-30T05:31:40;307.40;128.00
55331;DHT22;58851;42.984;20.336;2022-09-30T05:34:07;307.60;128.00
55331;DHT22;58851;42.984;20.336;2022-09-30T05:36:33;307.70;128.00
55331;DHT22;58851;42.984;20.336;2022-09-30T05:38:59;307.70;128.00
55331;DHT22;58851;42.984;20.336;2022-09-30T05:41:25;307.90;128.00
55331;DHT22;58851;42.984;20.336;2022-09-30T05:43:51;332.80;128.00
55331;DHT22;58851;42.984;20.336;2022-09-30T05:46:18;332.90;128.00
55331;DHT22;58851;42.984;20.336;2022-09-30T05:48:44;333.10;128.00
55331;DHT22;58851;42.984;20.336;2022-09-30T05:51:11;333.20;128.00
55331;DHT22;58851;42.984;20.336;2022-09-30T05:53:38;333.40;128.00
55331;DHT22;58851;42.984;20.336;2022-09-30T05:56:05;333.40;128.00
55331;DHT22;58851;42.984;20.336;2022-09-30T05:58:31;333.50;128.00
55331;DHT22;58851;42.984;20.336;2022-09-30T06:01:06;333.60;128.00
55331;DHT22;58851;42.984;20.336;2022-09-30T06:03:33;333.60;128.00
55331;DHT22;58851;42.984;20.336;2022-09-30T06:05:59;358.40;128.00
55331;DHT22;58851;42.984;20.336;2022-09-30T06:08:25;358.40;128.00
55331;DHT22;58851;42.984;20.336;2022-09-30T06:10:51;358.50;128.00
55331;DHT22;58851;42.984;20.336;2022-09-30T06:13:17;358.60;128.00
55331;DHT22;58851;42.984;20.336;2022-09-30T06:15:54;358.60;128.00
55331;DHT22;58851;42.984;20.336;2022-09-30T06:18:21;358.70;128.00
55331;DHT22;58851;42.984;20.336;2022-09-30T06:20:47;358.90;128.00
55331;DHT22;58851;42.984;20.336;2022-09-30T06:23:13;359.20;128.00
55331;DHT22;58851;42.984;20.336;2022-09-30T06:25:39;384.00;128.00
55331;DHT22;58851;42.984;20.336;2022-09-30T06:28:05;384.20;128.00
55331;DHT22;58851;42.984;20.336;2022-09-30T06:30:31;384.20;128.00
55331;DHT22;58851;42.984;20.336;2022-09-30T06:32:57;384.50;128.00
55331;DHT22;58851;42.984;20.336;2022-09-30T06:35:23;384.60;128.00
55331;DHT22;58851;42.984;20.336;2022-09-30T06:37:51;384.80;128.00
55331;DHT22;58851;42.984;20.336;2022-09-30T06:40:17;384.90;128.00
55331;DHT22;58851;42.984;20.336;2022-09-30T06:42:45;409.60;128.00
55331;DHT22;58851;42.984;20.336;2022-09-30T06:45:12;409.80;128.00
55331;DHT22;58851;42.984;20.336;2022-09-30T06:47:38;409.90;128.00
55331;DHT22;58851;42.984;20.336;2022-09-30T06:50:05;410.10;128.00
55331;DHT22;58851;42.984;20.336;2022-09-30T06:52:30;410.20;128.00
55331;DHT22;58851;42.984;20.336;2022-09-30T06:54:56;410.50;128.00
55331;DHT22;58851;42.984;20.336;2022-09-30T06:57:23;410.50;128.00
55331;DHT22;58851;42.984;20.336;2022-09-30T06:59:51;435.40;128.00
55331;DHT22;58851;42.984;20.336;2022-09-30T07:02:17;435.50;128.00
55331;DHT22;58851;42.984;20.336;2022-09-30T07:04:42;435.60;128.00
55331;DHT22;58851;42.984;20.336;2022-09-30T07:07:08;435.70;128.00
55331;DHT22;58851;42.984;20.336;2022-09-30T07:09:34;435.60;128.00
55331;DHT22;58851;42.984;20.336;2022-09-30T07:12:00;435.50;128.00
55331;DHT22;58851;42.984;20.336;2022-09-30T07:14:27;435.70;128.00
55331;DHT22;58851;42.984;20.336;2022-09-30T07:16:53;435.80;128.00
55331;DHT22;58851;42.984;20.336;2022-09-30T07:19:19;435.60;128.00
55331;DHT22;58851;42.984;20.336;2022-09-30T07:21:50;435.60;128.00
55331;DHT22;58851;42.984;20.336;2022-09-30T07:24:17;435.70;128.00
55331;DHT22;58851;42.984;20.336;2022-09-30T07:26:43;435.70;128.00
55331;DHT22;58851;42.984;20.336;2022-09-30T07:29:12;435.80;128.00
55331;DHT22;58851;42.984;20.336;2022-09-30T07:31:38;436.10;128.00
55331;DHT22;58851;42.984;20.336;2022-09-30T07:34:06;460.90;128.00
55331;DHT22;58851;42.984;20.336;2022-09-30T07:36:32;461.00;128.00
55331;DHT22;58851;42.984;20.336;2022-09-30T07:39:05;461.20;128.00
55331;DHT22;58851;42.984;20.336;2022-09-30T07:41:32;461.00;128.00
55331;DHT22;58851;42.984;20.336;2022-09-30T07:43:59;461.10;128.00
55331;DHT22;58851;42.984;20.336;2022-09-30T07:46:28;461.10;128.00
55331;DHT22;58851;42.984;20.336;2022-09-30T07:48:56;461.10;128.00
55331;DHT22;58851;42.984;20.336;2022-09-30T07:51:29;461.30;128.00
55331;DHT22;58851;42.984;20.336;2022-09-30T07:54:03;461.40;128.00
55331;DHT22;58851;42.984;20.336;2022-09-30T07:56:30;461.50;128.00
55331;DHT22;58851;42.984;20.336;2022-09-30T07:58:57;461.60;128.00
55331;DHT22;58851;42.984;20.336;2022-09-30T08:01:28;461.70;128.00
55331;DHT22;58851;42.984;20.336;2022-09-30T08:03:58;486.40;128.00
55331;DHT22;58851;42.984;20.336;2022-09-30T08:06:25;486.50;128.00
55331;DHT22;58851;42.984;20.336;2022-09-30T08:08:54;486.50;128.00
55331;DHT22;58851;42.984;20.336;2022-09-30T08:11:20;486.60;128.00
55331;DHT22;58851;42.984;20.336;2022-09-30T08:13:54;486.60;128.00
55331;DHT22;58851;42.984;20.336;2022-09-30T08:16:21;486.60;128.00
55331;DHT22;58851;42.984;20.336;2022-09-30T08:18:47;486.70;128.00
55331;DHT22;58851;42.984;20.336;2022-09-30T08:21:13;486.70;128.00
55331;DHT22;58851;42.984;20.336;2022-09-30T08:23:40;486.70;128.00
55331;DHT22;58851;42.984;20.336;2022-09-30T08:26:08;486.80;128.00
55331;DHT22;58851;42.984;20.336;2022-09-30T08:28:35;487.00;128.00
55331;DHT22;58851;42.984;20.336;2022-09-30T08:31:10;486.90;128.00
55331;DHT22;58851;42.984;20.336;2022-09-30T08:33:36;487.00;128.00
55331;DHT22;58851;42.984;20.336;2022-09-30T08:36:08;487.00;128.00
55331;DHT22;58851;42.984;20.336;2022-09-30T08:38:34;487.20;128.00
55331;DHT22;58851;42.984;20.336;2022-09-30T08:43:48;487.10;563.20
55331;DHT22;58851;42.984;20.336;2022-09-30T08:46:41;487.10;128.00
55331;DHT22;58851;42.984;20.336;2022-09-30T08:52:02;512.20;204.80
55331;DHT22;58851;42.984;20.336;2022-09-30T08:54:33;512.20;256.00
55331;DHT22;58851;42.984;20.336;2022-09-30T08:57:02;512.30;281.60
55331;DHT22;58851;42.984;20.336;2022-09-30T08:59:32;512.10;307.20
55331;DHT22;58851;42.984;20.336;2022-09-30T09:02:17;512.10;128.00
55331;DHT22;58851;42.984;20.336;2022-09-30T09:04:46;512.10;256.00
55331;DHT22;58851;42.984;20.336;2022-09-30T09:07:26;512.30;537.60
55331;DHT22;58851;42.984;20.336;2022-09-30T09:18:41;537.80;128.00
55331;DHT22;58851;42.984;20.336;2022-09-30T09:24:00;538.10;128.00
55331;DHT22;58851;42.984;20.336;2022-09-30T09:26:34;538.20;128.00
55331;DHT22;58851;42.984;20.336;2022-09-30T09:29:24;538.20;128.00
55331;DHT22;58851;42.984;20.336;2022-09-30T09:31:53;538.50;128.00
55331;DHT22;58851;42.984;20.336;2022-09-30T09:34:21;563.50;128.00
55331;DHT22;58851;42.984;20.336;2022-09-30T09:47:33;563.80;128.00
55331;DHT22;58851;42.984;20.336;2022-09-30T09:50:02;563.70;128.00
55331;DHT22;58851;42.984;20.336;2022-09-30T09:53:04;563.80;128.00
55331;DHT22;58851;42.984;20.336;2022-09-30T09:55:35;563.80;128.00
55331;DHT22;58851;42.984;20.336;2022-09-30T09:58:11;563.70;128.00
55331;DHT22;58851;42.984;20.336;2022-09-30T10:00:42;563.70;128.00
55331;DHT22;58851;42.984;20.336;2022-09-30T10:06:02;564.00;128.00
55331;DHT22;58851;42.984;20.336;2022-09-30T10:08:33;564.10;128.00
55331;DHT22;58851;42.984;20.336;2022-09-30T10:11:20;564.10;128.00
55331;DHT22;58851;42.984;20.336;2022-09-30T10:13:47;588.80;128.00
55331;DHT22;58851;42.984;20.336;2022-09-30T10:16:42;588.80;128.00
55331;DHT22;58851;42.984;20.336;2022-09-30T10:19:24;588.80;128.00
55331;DHT22;58851;42.984;20.336;2022-09-30T10:22:16;564.10;128.00
55331;DHT22;58851;42.984;20.336;2022-09-30T10:24:39;564.00;128.00
55331;DHT22;58851;42.984;20.336;2022-09-30T10:27:29;564.00;128.00
55331;DHT22;58851;42.984;20.336;2022-09-30T10:29:55;588.80;128.00
55331;DHT22;58851;42.984;20.336;2022-09-30T10:32:22;588.90;128.00
55331;DHT22;58851;42.984;20.336;2022-09-30T10:35:04;589.30;128.00
55331;DHT22;58851;42.984;20.336;2022-09-30T10:37:31;589.50;128.00
55331;DHT22;58851;42.984;20.336;2022-09-30T10:40:00;589.60;128.00
55331;DHT22;58851;42.984;20.336;2022-09-30T10:42:29;614.40;128.00
55331;DHT22;58851;42.984;20.336;2022-09-30T10:45:07;614.50;128.00
55331;DHT22;58851;42.984;20.336;2022-09-30T10:47:45;614.60;128.00
55331;DHT22;58851;42.984;20.336;2022-09-30T10:50:14;614.70;128.00
55331;DHT22;58851;42.984;20.336;2022-09-30T10:53:13;614.90;128.00
55331;DHT22;58851;42.984;20.336;2022-09-30T10:55:43;614.80;128.00
55331;DHT22;58851;42.984;20.336;2022-09-30T11:04:08;614.70;128.00
55331;DHT22;58851;42.984;20.336;2022-09-30T11:06:39;614.60;128.00
55331;DHT22;58851;42.984;20.336;2022-09-30T11:09:07;614.80;128.00
55331;DHT22;58851;42.984;20.336;2022-09-30T11:11:47;615.00;128.00
55331;DHT22;58851;42.984;20.336;2022-09-30T11:14:51;640.10;128.00
55331;DHT22;58851;42.984;20.336;2022-09-30T11:17:36;640.20;128.00
55331;DHT22;58851;42.984;20.336;2022-09-30T11:20:27;640.60;128.00
55331;DHT22;58851;42.984;20.336;2022-09-30T11:26:00;640.70;128.00
55331;DHT22;58851;42.984;20.336;2022-09-30T11:42:10;640.40;128.00
55331;DHT22;58851;42.984;20.336;2022-09-30T11:44:40;640.30;128.00
55331;DHT22;58851;42.984;20.336;2022-09-30T11:52:26;640.30;128.00
55331;DHT22;58851;42.984;20.336;2022-09-30T11:57:55;640.10;128.00
55331;DHT22;58851;42.984;20.336;2022-09-30T12:00:24;640.00;128.00
55331;DHT22;58851;42.984;20.336;2022-09-30T12:02:57;640.10;128.00
55331;DHT22;58851;42.984;20.336;2022-09-30T12:05:30;640.10;128.00
55331;DHT22;58851;42.984;20.336;2022-09-30T12:08:18;640.20;128.00
55331;DHT22;58851;42.984;20.336;2022-09-30T12:11:20;640.40;128.00
55331;DHT22;58851;42.984;20.336;2022-09-30T12:13:54;640.50;128.00
55331;DHT22;58851;42.984;20.336;2022-09-30T12:16:26;640.10;128.00
55331;DHT22;58851;42.984;20.336;2022-09-30T12:21:48;640.50;128.00
55331;DHT22;58851;42.984;20.336;2022-09-30T12:24:30;640.80;128.00
55331;DHT22;58851;42.984;20.336;2022-09-30T12:26:58;665.60;153.60
55331;DHT22;58851;42.984;20.336;2022-09-30T12:29:34;665.80;153.60
55331;DHT22;58851;42.984;20.336;2022-09-30T12:49:23;691.90;153.60
55331;DHT22;58851;42.984;20.336;2022-09-30T12:51:57;717.10;179.20
55331;DHT22;58851;42.984;20.336;2022-09-30T12:54:29;716.90;179.20
55331;DHT22;58851;42.984;20.336;2022-09-30T12:56:58;692.00;153.60
55331;DHT22;58851;42.984;20.336;2022-09-30T12:59:34;691.90;153.60
55331;DHT22;58851;42.984;20.336;2022-09-30T13:02:05;692.10;153.60
55331;DHT22;58851;42.984;20.336;2022-09-30T13:04:37;691.80;153.60
55331;DHT22;58851;42.984;20.336;2022-09-30T13:07:05;691.80;153.60
55331;DHT22;58851;42.984;20.336;2022-09-30T13:12:42;691.90;153.60
55331;DHT22;58851;42.984;20.336;2022-09-30T13:15:44;691.70;153.60
55331;DHT22;58851;42.984;20.336;2022-09-30T13:20:49;717.10;179.20
55331;DHT22;58851;42.984;20.336;2022-09-30T13:26:03;742.40;204.80
55331;DHT22;58851;42.984;20.336;2022-09-30T13:28:37;743.00;204.80
55331;DHT22;58851;42.984;20.336;2022-09-30T13:31:15;742.90;204.80
55331;DHT22;58851;42.984;20.336;2022-09-30T13:36:37;717.00;179.20
55331;DHT22;58851;42.984;20.336;2022-09-30T13:42:11;691.80;153.60
55331;DHT22;58851;42.984;20.336;2022-09-30T13:47:49;666.40;153.60
55331;DHT22;58851;42.984;20.336;2022-09-30T13:50:31;666.20;153.60
55331;DHT22;58851;42.984;20.336;2022-09-30T13:53:05;665.80;153.60
55331;DHT22;58851;42.984;20.336;2022-09-30T13:55:40;640.90;128.00
55331;DHT22;58851;42.984;20.336;2022-09-30T14:12:18;640.50;128.00
55331;DHT22;58851;42.984;20.336;2022-09-30T14:19:57;717.20;179.20
55331;DHT22;58851;42.984;20.336;2022-09-30T14:22:27;742.40;204.80
55331;DHT22;58851;42.984;20.336;2022-09-30T14:24:55;742.80;204.80
55331;DHT22;58851;42.984;20.336;2022-09-30T14:27:50;743.30;204.80
55331;DHT22;58851;42.984;20.336;2022-09-30T14:30:21;743.00;204.80
55331;DHT22;58851;42.984;20.336;2022-09-30T14:32:52;768.10;204.80
55331;DHT22;58851;42.984;20.336;2022-09-30T14:35:25;742.70;204.80
55331;DHT22;58851;42.984;20.336;2022-09-30T14:40:33;716.80;179.20
55331;DHT22;58851;42.984;20.336;2022-09-30T14:43:04;691.30;153.60
55331;DHT22;58851;42.984;20.336;2022-09-30T14:45:34;666.40;153.60
55331;DHT22;58851;42.984;20.336;2022-09-30T14:48:08;666.40;153.60
55331;DHT22;58851;42.984;20.336;2022-09-30T14:50:52;666.20;153.60
55331;DHT22;58851;42.984;20.336;2022-09-30T14:53:31;666.50;153.60
55331;DHT22;58851;42.984;20.336;2022-09-30T14:55:58;691.30;153.60
55331;DHT22;58851;42.984;20.336;2022-09-30T15:03:34;666.40;153.60
55331;DHT22;58851;42.984;20.336;2022-09-30T15:06:01;666.10;153.60
55331;DHT22;58851;42.984;20.336;2022-09-30T15:08:27;640.90;128.00
55331;DHT22;58851;42.984;20.336;2022-09-30T15:10:54;640.20;128.00
55331;DHT22;58851;42.984;20.336;2022-09-30T15:13:23;615.30;128.00
55331;DHT22;58851;42.984;20.336;2022-09-30T15:15:49;615.10;128.00
55331;DHT22;58851;42.984;20.336;2022-09-30T15:18:29;614.80;128.00
55331;DHT22;58851;42.984;20.336;2022-09-30T15:21:15;614.50;128.00
55331;DHT22;58851;42.984;20.336;2022-09-30T15:23:45;589.70;128.00
55331;DHT22;58851;42.984;20.336;2022-09-30T15:26:12;589.70;128.00
55331;DHT22;58851;42.984;20.336;2022-09-30T15:28:39;589.70;128.00
55331;DHT22;58851;42.984;20.336;2022-09-30T15:31:06;589.60;128.00
55331;DHT22;58851;42.984;20.336;2022-09-30T15:33:33;589.50;128.00
55331;DHT22;58851;42.984;20.336;2022-09-30T15:36:10;589.20;128.00
55331;DHT22;58851;42.984;20.336;2022-09-30T15:38:39;589.00;128.00
55331;DHT22;58851;42.984;20.336;2022-09-30T15:41:09;588.80;128.00
55331;DHT22;58851;42.984;20.336;2022-09-30T15:46:19;563.70;128.00
55331;DHT22;58851;42.984;20.336;2022-09-30T15:48:47;563.60;128.00
55331;DHT22;58851;42.984;20.336;2022-09-30T15:53:55;563.20;128.00
55331;DHT22;58851;42.984;20.336;2022-09-30T15:56:33;538.40;128.00
55331;DHT22;58851;42.984;20.336;2022-09-30T16:01:35;538.10;128.00
55331;DHT22;58851;42.984;20.336;2022-09-30T16:06:34;537.80;128.00
55331;DHT22;58851;42.984;20.336;2022-09-30T16:09:05;537.80;128.00
55331;DHT22;58851;42.984;20.336;2022-09-30T16:11:40;537.70;128.00
55331;DHT22;58851;42.984;20.336;2022-09-30T16:14:10;512.90;128.00
55331;DHT22;58851;42.984;20.336;2022-09-30T16:16:47;512.90;128.00
55331;DHT22;58851;42.984;20.336;2022-09-30T16:19:17;512.70;128.00
55331;DHT22;58851;42.984;20.336;2022-09-30T16:21:46;512.60;128.00
55331;DHT22;58851;42.984;20.336;2022-09-30T16:26:47;512.20;128.00
55331;DHT22;58851;42.984;20.336;2022-09-30T16:29:13;512.20;128.00
55331;DHT22;58851;42.984;20.336;2022-09-30T16:31:41;512.20;128.00
55331;DHT22;58851;42.984;20.336;2022-09-30T16:34:14;512.00;128.00
55331;DHT22;58851;42.984;20.336;2022-09-30T16:36:42;487.20;128.00
55331;DHT22;58851;42.984;20.336;2022-09-30T16:39:12;486.90;128.00
55331;DHT22;58851;42.984;20.336;2022-09-30T16:41:39;486.70;128.00
55331;DHT22;58851;42.984;20.336;2022-09-30T16:44:05;486.70;128.00
55331;DHT22;58851;42.984;20.336;2022-09-30T16:46:31;486.70;128.00
55331;DHT22;58851;42.984;20.336;2022-09-30T16:49:13;486.60;128.00
55331;DHT22;58851;42.984;20.336;2022-09-30T16:51:39;486.40;128.00
55331;DHT22;58851;42.984;20.336;2022-09-30T16:54:05;461.50;128.00
55331;DHT22;58851;42.984;20.336;2022-09-30T16:56:31;461.40;128.00
55331;DHT22;58851;42.984;20.336;2022-09-30T16:58:57;461.50;128.00
55331;DHT22;58851;42.984;20.336;2022-09-30T17:01:24;461.50;128.00
55331;DHT22;58851;42.984;20.336;2022-09-30T17:03:51;461.40;128.00
55331;DHT22;58851;42.984;20.336;2022-09-30T17:06:19;461.30;128.00
55331;DHT22;58851;42.984;20.336;2022-09-30T17:08:48;461.10;128.00
55331;DHT22;58851;42.984;20.336;2022-09-30T17:11:14;461.00;128.00
55331;DHT22;58851;42.984;20.336;2022-09-30T17:13:40;461.00;128.00
55331;DHT22;58851;42.984;20.336;2022-09-30T17:16:09;460.80;128.00
55331;DHT22;58851;42.984;20.336;2022-09-30T17:18:35;436.00;128.00
55331;DHT22;58851;42.984;20.336;2022-09-30T17:21:01;435.90;128.00
55331;DHT22;58851;42.984;20.336;2022-09-30T17:23:27;435.90;128.00
55331;DHT22;58851;42.984;20.336;2022-09-30T17:25:53;435.90;128.00
55331;DHT22;58851;42.984;20.336;2022-09-30T17:28:19;435.70;128.00
55331;DHT22;58851;42.984;20.336;2022-09-30T17:30:46;435.70;179.20
55331;DHT22;58851;42.984;20.336;2022-09-30T17:33:16;435.50;128.00
55331;DHT22;58851;42.984;20.336;2022-09-30T17:35:44;435.40;128.00
55331;DHT22;58851;42.984;20.336;2022-09-30T17:38:11;435.40;128.00
55331;DHT22;58851;42.984;20.336;2022-09-30T17:40:38;435.20;665.60
55331;DHT22;58851;42.984;20.336;2022-09-30T17:43:22;435.20;537.60
55331;DHT22;58851;42.984;20.336;2022-09-30T17:45:49;435.30;128.00
55331;DHT22;58851;42.984;20.336;2022-09-30T17:48:19;435.20;128.00
55331;DHT22;58851;42.984;20.336;2022-09-30T17:50:47;410.50;128.00
55331;DHT22;58851;42.984;20.336;2022-09-30T17:53:15;410.10;128.00
55331;DHT22;58851;42.984;20.336;2022-09-30T17:55:44;410.10;128.00
55331;DHT22;58851;42.984;20.336;2022-09-30T17:58:16;410.20;128.00
55331;DHT22;58851;42.984;20.336;2022-09-30T18:00:42;410.20;128.00
55331;DHT22;58851;42.984;20.336;2022-09-30T18:03:08;410.00;128.00
55331;DHT22;58851;42.984;20.336;2022-09-30T18:05:35;409.90;128.00
55331;DHT22;58851;42.984;20.336;2022-09-30T18:08:01;409.80;128.00
55331;DHT22;58851;42.984;20.336;2022-09-30T18:10:27;409.70;128.00
55331;DHT22;58851;42.984;20.336;2022-09-30T18:12:54;384.90;128.00
55331;DHT22;58851;42.984;20.336;2022-09-30T18:15:21;409.60;128.00
55331;DHT22;58851;42.984;20.336;2022-09-30T18:17:47;409.60;128.00
55331;DHT22;58851;42.984;20.336;2022-09-30T18:20:13;384.80;128.00
55331;DHT22;58851;42.984;20.336;2022-09-30T18:22:39;384.60;128.00
55331;DHT22;58851;42.984;20.336;2022-09-30T18:25:06;384.70;128.00
55331;DHT22;58851;42.984;20.336;2022-09-30T18:27:45;384.80;128.00
55331;DHT22;58851;42.984;20.336;2022-09-30T18:30:11;384.70;128.00
55331;DHT22;58851;42.984;20.336;2022-09-30T18:32:37;384.60;128.00
55331;DHT22;58851;42.984;20.336;2022-09-30T18:35:04;384.60;128.00
55331;DHT22;58851;42.984;20.336;2022-09-30T18:37:34;384.70;128.00
55331;DHT22;58851;42.984;20.336;2022-09-30T18:40:00;384.70;128.00
55331;DHT22;58851;42.984;20.336;2022-09-30T18:42:26;384.80;128.00